sensor_id;sensor_type;location;lat;lon;timestamp;pressure;altitude;pressure_sealevel;temperature;humidity
7075;BME280;3578;51.568;6.932;2023-07-28T00:02:11;50299.31;;;-144.14;100.00
7075;BME280;3578;51.568;6.932;2023-07-28T00:04:38;50285.31;;;-144.14;100.00
7075;BME280;3578;51.568;6.932;2023-07-28T00:07:05;50321.34;;;-144.14;100.00
7075;BME280;3578;51.568;6.932;2023-07-28T00:09:32;50315.34;;;-144.14;100.00
7075;BME280;3578;51.568;6.932;2023-07-28T00:12:00;50297.31;;;-144.14;100.00
7075;BME280;3578;51.568;6.932;2023-07-28T00:14:28;50295.31;;;-144.14;100.00
7075;BME280;3578;51.568;6.932;2023-07-28T00:16:57;50311.34;;;-144.14;100.00
7075;BME280;3578;51.568;6.932;2023-07-28T00:19:25;50329.38;;;-144.14;100.00
7075;BME280;3578;51.568;6.932;2023-07-28T00:21:52;50317.34;;;-144.14;100.00
7075;BME280;3578;51.568;6.932;2023-07-28T00:24:21;50291.31;;;-144.14;100.00
7075;BME280;3578;51.568;6.932;2023-07-28T00:26:48;50333.38;;;-144.14;100.00
7075;BME280;3578;51.568;6.932;2023-07-28T00:29:15;50337.38;;;-144.14;100.00
7075;BME280;3578;51.568;6.932;2023-07-28T00:31:42;50323.34;;;-144.14;100.00
7075;BME280;3578;51.568;6.932;2023-07-28T00:34:09;50299.31;;;-144.14;100.00
7075;BME280;3578;51.568;6.932;2023-07-28T00:36:38;50309.34;;;-144.14;100.00
7075;BME280;3578;51.568;6.932;2023-07-28T00:39:05;50297.31;;;-144.14;100.00
7075;BME280;3578;51.568;6.932;2023-07-28T00:41:31;50307.34;;;-144.14;100.00
7075;BME280;3578;51.568;6.932;2023-07-28T00:43:58;50299.31;;;-144.14;100.00
7075;BME280;3578;51.568;6.932;2023-07-28T00:46:25;50297.31;;;-144.14;100.00
7075;BME280;3578;51.568;6.932;2023-07-28T00:48:53;50317.34;;;-144.14;100.00
7075;BME280;3578;51.568;6.932;2023-07-28T00:51:21;50305.34;;;-144.14;100.00
7075;BME280;3578;51.568;6.932;2023-07-28T00:53:50;50343.38;;;-144.14;100.00
7075;BME280;3578;51.568;6.932;2023-07-28T00:56:19;50287.31;;;-144.14;100.00
7075;BME280;3578;51.568;6.932;2023-07-28T00:58:48;50305.34;;;-144.14;100.00
7075;BME280;3578;51.568;6.932;2023-07-28T01:01:15;50315.34;;;-144.14;100.00
7075;BME280;3578;51.568;6.932;2023-07-28T01:03:42;50313.34;;;-144.14;100.00
7075;BME280;3578;51.568;6.932;2023-07-28T01:06:17;50297.31;;;-144.14;100.00
7075;BME280;3578;51.568;6.932;2023-07-28T01:08:57;50337.38;;;-144.14;100.00
7075;BME280;3578;51.568;6.932;2023-07-28T01:11:26;50305.34;;;-144.14;100.00
7075;BME280;3578;51.568;6.932;2023-07-28T01:13:53;50293.31;;;-144.14;100.00
7075;BME280;3578;51.568;6.932;2023-07-28T01:16:20;50299.31;;;-144.14;100.00
7075;BME280;3578;51.568;6.932;2023-07-28T01:18:47;50297.31;;;-144.14;100.00
7075;BME280;3578;51.568;6.932;2023-07-28T01:21:30;50263.28;;;-144.14;100.00
7075;BME280;3578;51.568;6.932;2023-07-28T01:24:12;50311.34;;;-144.14;100.00
7075;BME280;3578;51.568;6.932;2023-07-28T01:26:43;50273.31;;;-144.14;100.00
7075;BME280;3578;51.568;6.932;2023-07-28T01:29:11;50285.31;;;-144.14;100.00
7075;BME280;3578;51.568;6.932;2023-07-28T01:31:40;50297.31;;;-144.14;100.00
7075;BME280;3578;51.568;6.932;2023-07-28T01:34:07;50287.31;;;-144.14;100.00
7075;BME280;3578;51.568;6.932;2023-07-28T01:36:34;50311.34;;;-144.14;100.00
7075;BME280;3578;51.568;6.932;2023-07-28T01:39:02;50309.34;;;-144.14;100.00
7075;BME280;3578;51.568;6.932;2023-07-28T01:41:29;50305.34;;;-144.14;100.00
7075;BME280;3578;51.568;6.932;2023-07-28T01:43:57;50299.31;;;-144.14;100.00
7075;BME280;3578;51.568;6.932;2023-07-28T01:46:24;50293.31;;;-144.14;100.00
7075;BME280;3578;51.568;6.932;2023-07-28T01:48:51;50299.31;;;-144.14;100.00
7075;BME280;3578;51.568;6.932;2023-07-28T01:51:18;50305.34;;;-144.14;100.00
7075;BME280;3578;51.568;6.932;2023-07-28T01:53:45;50293.31;;;-144.14;100.00
7075;BME280;3578;51.568;6.932;2023-07-28T01:56:12;50307.34;;;-144.14;100.00
7075;BME280;3578;51.568;6.932;2023-07-28T01:58:40;50321.34;;;-144.14;100.00
7075;BME280;3578;51.568;6.932;2023-07-28T02:01:08;50321.34;;;-144.14;100.00
7075;BME280;3578;51.568;6.932;2023-07-28T02:03:35;50317.34;;;-144.14;100.00
7075;BME280;3578;51.568;6.932;2023-07-28T02:06:02;50339.38;;;-144.14;100.00
7075;BME280;3578;51.568;6.932;2023-07-28T02:08:29;50311.34;;;-144.14;100.00
7075;BME280;3578;51.568;6.932;2023-07-28T02:10:56;50301.34;;;-144.14;100.00
7075;BME280;3578;51.568;6.932;2023-07-28T02:13:23;50333.38;;;-144.14;100.00
7075;BME280;3578;51.568;6.932;2023-07-28T02:15:50;50315.34;;;-144.14;100.00
7075;BME280;3578;51.568;6.932;2023-07-28T02:18:18;50317.34;;;-144.14;100.00
7075;BME280;3578;51.568;6.932;2023-07-28T02:20:48;50321.34;;;-144.14;100.00
7075;BME280;3578;51.568;6.932;2023-07-28T02:23:15;50327.38;;;-144.14;100.00
7075;BME280;3578;51.568;6.932;2023-07-28T02:25:42;50299.31;;;-144.14;100.00
7075;BME280;3578;51.568;6.932;2023-07-28T02:28:10;50285.31;;;-144.14;100.00
7075;BME280;3578;51.568;6.932;2023-07-28T02:30:37;50317.34;;;-144.14;100.00
7075;BME280;3578;51.568;6.932;2023-07-28T02:33:04;50329.38;;;-144.14;100.00
7075;BME280;3578;51.568;6.932;2023-07-28T02:35:33;50317.34;;;-144.14;100.00
7075;BME280;3578;51.568;6.932;2023-07-28T02:38:00;50325.34;;;-144.14;100.00
7075;BME280;3578;51.568;6.932;2023-07-28T02:40:27;50331.38;;;-144.14;100.00
7075;BME280;3578;51.568;6.932;2023-07-28T02:42:54;50325.34;;;-144.14;100.00
7075;BME280;3578;51.568;6.932;2023-07-28T02:45:22;50329.38;;;-144.14;100.00
7075;BME280;3578;51.568;6.932;2023-07-28T02:47:50;50297.31;;;-144.14;100.00
7075;BME280;3578;51.568;6.932;2023-07-28T02:50:17;50345.38;;;-144.14;100.00
7075;BME280;3578;51.568;6.932;2023-07-28T02:52:46;50315.34;;;-144.14;100.00
7075;BME280;3578;51.568;6.932;2023-07-28T02:55:13;50329.38;;;-144.14;100.00
7075;BME280;3578;51.568;6.932;2023-07-28T02:57:40;50321.34;;;-144.14;100.00
7075;BME280;3578;51.568;6.932;2023-07-28T03:00:08;50341.38;;;-144.14;100.00
7075;BME280;3578;51.568;6.932;2023-07-28T03:02:36;50309.34;;;-144.14;100.00
7075;BME280;3578;51.568;6.932;2023-07-28T03:05:04;50331.38;;;-144.14;100.00
7075;BME280;3578;51.568;6.932;2023-07-28T03:07:31;50321.34;;;-144.14;100.00
7075;BME280;3578;51.568;6.932;2023-07-28T03:09:59;50335.38;;;-144.14;100.00
7075;BME280;3578;51.568;6.932;2023-07-28T03:12:26;50321.34;;;-144.14;100.00
7075;BME280;3578;51.568;6.932;2023-07-28T03:14:54;50311.34;;;-144.14;100.00
7075;BME280;3578;51.568;6.932;2023-07-28T03:17:21;50317.34;;;-144.14;100.00
7075;BME280;3578;51.568;6.932;2023-07-28T03:19:48;50341.38;;;-144.14;100.00
7075;BME280;3578;51.568;6.932;2023-07-28T03:22:15;50323.34;;;-144.14;100.00
7075;BME280;3578;51.568;6.932;2023-07-28T03:24:42;50333.38;;;-144.14;100.00
7075;BME280;3578;51.568;6.932;2023-07-28T03:27:13;50339.38;;;-144.14;100.00
7075;BME280;3578;51.568;6.932;2023-07-28T03:29:40;50321.34;;;-144.14;100.00
7075;BME280;3578;51.568;6.932;2023-07-28T03:32:07;50327.38;;;-144.14;100.00
7075;BME280;3578;51.568;6.932;2023-07-28T03:34:34;50315.34;;;-144.14;100.00
7075;BME280;3578;51.568;6.932;2023-07-28T03:37:01;50313.34;;;-144.14;100.00
7075;BME280;3578;51.568;6.932;2023-07-28T03:39:28;50305.34;;;-144.14;100.00
7075;BME280;3578;51.568;6.932;2023-07-28T03:41:57;50281.31;;;-144.14;100.00
7075;BME280;3578;51.568;6.932;2023-07-28T03:44:25;50291.31;;;-144.14;100.00
7075;BME280;3578;51.568;6.932;2023-07-28T03:46:52;50349.38;;;-144.14;100.00
7075;BME280;3578;51.568;6.932;2023-07-28T03:49:19;50309.34;;;-144.14;100.00
7075;BME280;3578;51.568;6.932;2023-07-28T03:51:46;50309.34;;;-144.14;100.00
7075;BME280;3578;51.568;6.932;2023-07-28T03:54:13;50301.34;;;-144.14;100.00
7075;BME280;3578;51.568;6.932;2023-07-28T03:56:40;50347.38;;;-144.14;100.00
7075;BME280;3578;51.568;6.932;2023-07-28T03:59:07;50319.34;;;-144.14;100.00
7075;BME280;3578;51.568;6.932;2023-07-28T04:01:35;50331.38;;;-144.14;100.00
7075;BME280;3578;51.568;6.932;2023-07-28T04:04:03;50275.31;;;-144.14;100.00
7075;BME280;3578;51.568;6.932;2023-07-28T04:06:40;50289.31;;;-144.14;100.00
7075;BME280;3578;51.568;6.932;2023-07-28T04:09:07;50293.31;;;-144.14;100.00
7075;BME280;3578;51.568;6.932;2023-07-28T04:11:34;50285.31;;;-144.14;100.00
7075;BME280;3578;51.568;6.932;2023-07-28T04:14:02;50299.31;;;-144.14;100.00
7075;BME280;3578;51.568;6.932;2023-07-28T04:16:29;50297.31;;;-144.14;100.00
7075;BME280;3578;51.568;6.932;2023-07-28T04:18:58;50291.31;;;-144.14;100.00
7075;BME280;3578;51.568;6.932;2023-07-28T04:21:25;50275.31;;;-144.14;100.00
7075;BME280;3578;51.568;6.932;2023-07-28T04:23:52;50273.31;;;-144.14;100.00
7075;BME280;3578;51.568;6.932;2023-07-28T04:26:19;50309.34;;;-144.14;100.00
7075;BME280;3578;51.568;6.932;2023-07-28T04:28:46;50293.31;;;-144.14;100.00
7075;BME280;3578;51.568;6.932;2023-07-28T04:31:13;50303.34;;;-144.14;100.00
7075;BME280;3578;51.568;6.932;2023-07-28T04:33:41;50299.31;;;-144.14;100.00
7075;BME280;3578;51.568;6.932;2023-07-28T04:36:10;50321.34;;;-144.14;100.00
7075;BME280;3578;51.568;6.932;2023-07-28T04:38:36;50297.31;;;-144.14;100.00
7075;BME280;3578;51.568;6.932;2023-07-28T04:41:03;50311.34;;;-144.14;100.00
7075;BME280;3578;51.568;6.932;2023-07-28T04:43:30;50297.31;;;-144.14;100.00
7075;BME280;3578;51.568;6.932;2023-07-28T04:45:57;50333.38;;;-144.14;100.00
7075;BME280;3578;51.568;6.932;2023-07-28T04:48:24;50309.34;;;-144.14;100.00
7075;BME280;3578;51.568;6.932;2023-07-28T04:50:51;50301.34;;;-144.14;100.00
7075;BME280;3578;51.568;6.932;2023-07-28T04:53:20;50303.34;;;-144.14;100.00
7075;BME280;3578;51.568;6.932;2023-07-28T04:55:46;50321.34;;;-144.14;100.00
7075;BME280;3578;51.568;6.932;2023-07-28T04:58:13;50315.34;;;-144.14;100.00
7075;BME280;3578;51.568;6.932;2023-07-28T05:00:40;50315.34;;;-144.14;100.00
7075;BME280;3578;51.568;6.932;2023-07-28T05:03:07;50329.38;;;-144.14;100.00
7075;BME280;3578;51.568;6.932;2023-07-28T05:05:34;50309.34;;;-144.14;100.00
7075;BME280;3578;51.568;6.932;2023-07-28T05:08:01;50307.34;;;-144.14;100.00
7075;BME280;3578;51.568;6.932;2023-07-28T05:10:29;50333.38;;;-144.14;100.00
7075;BME280;3578;51.568;6.932;2023-07-28T05:12:56;50325.34;;;-144.14;100.00
7075;BME280;3578;51.568;6.932;2023-07-28T05:15:23;50309.34;;;-144.14;100.00
7075;BME280;3578;51.568;6.932;2023-07-28T05:17:50;50323.34;;;-144.14;100.00
7075;BME280;3578;51.568;6.932;2023-07-28T05:20:17;50361.41;;;-144.14;100.00
7075;BME280;3578;51.568;6.932;2023-07-28T05:22:44;50355.41;;;-144.14;100.00
7075;BME280;3578;51.568;6.932;2023-07-28T05:25:11;50327.38;;;-144.14;100.00
7075;BME280;3578;51.568;6.932;2023-07-28T05:27:40;50337.38;;;-144.14;100.00
7075;BME280;3578;51.568;6.932;2023-07-28T05:30:08;50349.38;;;-144.14;100.00
7075;BME280;3578;51.568;6.932;2023-07-28T05:32:35;50329.38;;;-144.14;100.00
7075;BME280;3578;51.568;6.932;2023-07-28T05:35:02;50363.41;;;-144.14;100.00
7075;BME280;3578;51.568;6.932;2023-07-28T05:37:29;50327.38;;;-144.14;100.00
7075;BME280;3578;51.568;6.932;2023-07-28T05:39:56;50369.41;;;-144.14;100.00
7075;BME280;3578;51.568;6.932;2023-07-28T05:42:23;50361.41;;;-144.14;100.00
7075;BME280;3578;51.568;6.932;2023-07-28T05:44:52;50369.41;;;-144.14;100.00
7075;BME280;3578;51.568;6.932;2023-07-28T05:47:21;50373.41;;;-144.14;100.00
7075;BME280;3578;51.568;6.932;2023-07-28T05:49:48;50385.44;;;-144.14;100.00
7075;BME280;3578;51.568;6.932;2023-07-28T05:52:15;50375.41;;;-144.14;100.00
7075;BME280;3578;51.568;6.932;2023-07-28T05:54:42;50393.44;;;-144.14;100.00
7075;BME280;3578;51.568;6.932;2023-07-28T05:57:08;50365.41;;;-144.14;100.00
7075;BME280;3578;51.568;6.932;2023-07-28T05:59:35;50393.44;;;-144.14;100.00
7075;BME280;3578;51.568;6.932;2023-07-28T06:02:04;50413.47;;;-144.14;100.00
7075;BME280;3578;51.568;6.932;2023-07-28T06:04:31;50409.47;;;-144.14;100.00
7075;BME280;3578;51.568;6.932;2023-07-28T06:06:58;50433.50;;;-144.14;100.00
7075;BME280;3578;51.568;6.932;2023-07-28T06:09:25;50423.47;;;-144.14;100.00
7075;BME280;3578;51.568;6.932;2023-07-28T06:11:52;50425.47;;;-144.14;100.00
7075;BME280;3578;51.568;6.932;2023-07-28T06:14:19;50421.47;;;-144.14;100.00
7075;BME280;3578;51.568;6.932;2023-07-28T06:16:46;50399.44;;;-144.14;100.00
7075;BME280;3578;51.568;6.932;2023-07-28T06:19:15;50431.50;;;-144.14;100.00
7075;BME280;3578;51.568;6.932;2023-07-28T06:21:49;50425.47;;;-144.14;100.00
7075;BME280;3578;51.568;6.932;2023-07-28T06:24:18;50421.47;;;-144.14;100.00
7075;BME280;3578;51.568;6.932;2023-07-28T06:26:45;50429.47;;;-144.14;100.00
7075;BME280;3578;51.568;6.932;2023-07-28T06:29:11;50425.47;;;-144.14;100.00
7075;BME280;3578;51.568;6.932;2023-07-28T06:31:38;50457.53;;;-144.14;100.00
7075;BME280;3578;51.568;6.932;2023-07-28T06:34:06;50433.50;;;-144.14;100.00
7075;BME280;3578;51.568;6.932;2023-07-28T06:36:34;50465.53;;;-144.14;100.00
7075;BME280;3578;51.568;6.932;2023-07-28T06:39:00;50453.50;;;-144.14;100.00
7075;BME280;3578;51.568;6.932;2023-07-28T06:41:28;50477.53;;;-144.14;100.00
7075;BME280;3578;51.568;6.932;2023-07-28T06:43:55;50465.53;;;-144.14;100.00
7075;BME280;3578;51.568;6.932;2023-07-28T06:46:22;50463.53;;;-144.14;100.00
7075;BME280;3578;51.568;6.932;2023-07-28T06:48:49;50497.56;;;-144.14;100.00
7075;BME280;3578;51.568;6.932;2023-07-28T06:51:16;50495.56;;;-144.14;100.00
7075;BME280;3578;51.568;6.932;2023-07-28T06:53:44;50525.59;;;-144.14;100.00
7075;BME280;3578;51.568;6.932;2023-07-28T06:56:11;50511.59;;;-144.14;100.00
7075;BME280;3578;51.568;6.932;2023-07-28T06:58:38;50541.63;;;-144.14;100.00
7075;BME280;3578;51.568;6.932;2023-07-28T07:01:05;50509.59;;;-144.14;100.00
7075;BME280;3578;51.568;6.932;2023-07-28T07:03:34;50593.69;;;-144.14;100.00
7075;BME280;3578;51.568;6.932;2023-07-28T07:06:01;50569.66;;;-144.14;100.00
7075;BME280;3578;51.568;6.932;2023-07-28T07:08:28;50575.66;;;-144.14;100.00
7075;BME280;3578;51.568;6.932;2023-07-28T07:10:56;50603.69;;;-144.14;100.00
7075;BME280;3578;51.568;6.932;2023-07-28T07:13:23;50601.69;;;-144.14;100.00
7075;BME280;3578;51.568;6.932;2023-07-28T07:15:51;50609.72;;;-144.14;100.00
7075;BME280;3578;51.568;6.932;2023-07-28T07:18:18;50639.75;;;-144.14;100.00
7075;BME280;3578;51.568;6.932;2023-07-28T07:20:45;50649.75;;;-144.14;100.00
7075;BME280;3578;51.568;6.932;2023-07-28T07:23:11;50653.75;;;-144.14;100.00
7075;BME280;3578;51.568;6.932;2023-07-28T07:25:40;50661.78;;;-144.14;100.00
7075;BME280;3578;51.568;6.932;2023-07-28T07:28:08;50657.78;;;-144.14;100.00
7075;BME280;3578;51.568;6.932;2023-07-28T07:30:35;50635.75;;;-144.14;100.00
7075;BME280;3578;51.568;6.932;2023-07-28T07:33:02;50651.75;;;-144.14;100.00
7075;BME280;3578;51.568;6.932;2023-07-28T07:35:29;50665.78;;;-144.14;100.00
7075;BME280;3578;51.568;6.932;2023-07-28T07:37:56;50643.75;;;-144.14;100.00
7075;BME280;3578;51.568;6.932;2023-07-28T07:40:23;50629.72;;;-144.14;100.00
7075;BME280;3578;51.568;6.932;2023-07-28T07:42:50;50643.75;;;-144.14;100.00
7075;BME280;3578;51.568;6.932;2023-07-28T07:45:19;50637.75;;;-144.14;100.00
7075;BME280;3578;51.568;6.932;2023-07-28T07:47:46;50693.81;;;-144.14;100.00
7075;BME280;3578;51.568;6.932;2023-07-28T07:50:14;50689.81;;;-144.14;100.00
7075;BME280;3578;51.568;6.932;2023-07-28T07:52:40;50645.75;;;-144.14;100.00
7075;BME280;3578;51.568;6.932;2023-07-28T07:55:09;50699.81;;;-144.14;100.00
7075;BME280;3578;51.568;6.932;2023-07-28T07:57:36;50725.84;;;-144.14;100.00
7075;BME280;3578;51.568;6.932;2023-07-28T08:00:05;50741.88;;;-144.14;100.00
7075;BME280;3578;51.568;6.932;2023-07-28T08:02:34;50771.91;;;-144.14;100.00
7075;BME280;3578;51.568;6.932;2023-07-28T08:05:01;50785.94;;;-144.14;100.00
7075;BME280;3578;51.568;6.932;2023-07-28T08:07:28;50834.00;;;-144.14;100.00
7075;BME280;3578;51.568;6.932;2023-07-28T08:09:55;50830.00;;;-144.14;100.00
7075;BME280;3578;51.568;6.932;2023-07-28T08:12:22;50928.13;;;-144.14;100.00
7075;BME280;3578;51.568;6.932;2023-07-28T08:14:50;50916.09;;;-144.14;100.00
7075;BME280;3578;51.568;6.932;2023-07-28T08:17:17;50938.13;;;-144.14;100.00
7075;BME280;3578;51.568;6.932;2023-07-28T08:19:45;50918.09;;;-144.14;100.00
7075;BME280;3578;51.568;6.932;2023-07-28T08:22:12;50966.19;;;-144.14;100.00
7075;BME280;3578;51.568;6.932;2023-07-28T08:24:39;50996.22;;;-144.14;100.00
7075;BME280;3578;51.568;6.932;2023-07-28T08:27:06;51072.31;;;-144.14;100.00
7075;BME280;3578;51.568;6.932;2023-07-28T08:29:33;51094.34;;;-144.14;100.00
7075;BME280;3578;51.568;6.932;2023-07-28T08:32:00;51132.41;;;-144.14;100.00
7075;BME280;3578;51.568;6.932;2023-07-28T08:34:27;51148.44;;;-144.14;100.00
7075;BME280;3578;51.568;6.932;2023-07-28T08:36:55;51186.47;;;-144.14;100.00
7075;BME280;3578;51.568;6.932;2023-07-28T08:39:22;51206.50;;;-144.14;100.00
7075;BME280;3578;51.568;6.932;2023-07-28T08:41:58;51218.53;;;-144.14;100.00
7075;BME280;3578;51.568;6.932;2023-07-28T08:44:25;51212.53;;;-144.14;100.00
7075;BME280;3578;51.568;6.932;2023-07-28T08:46:53;51214.53;;;-144.14;100.00
7075;BME280;3578;51.568;6.932;2023-07-28T08:49:20;51220.53;;;-144.14;100.00
7075;BME280;3578;51.568;6.932;2023-07-28T08:51:49;51256.59;;;-144.14;100.00
7075;BME280;3578;51.568;6.932;2023-07-28T08:54:18;51262.59;;;-144.14;100.00
7075;BME280;3578;51.568;6.932;2023-07-28T08:56:45;51294.63;;;-144.14;100.00
7075;BME280;3578;51.568;6.932;2023-07-28T08:59:12;51276.63;;;-144.14;100.00
7075;BME280;3578;51.568;6.932;2023-07-28T09:01:39;51328.69;;;-144.14;100.00
7075;BME280;3578;51.568;6.932;2023-07-28T09:04:09;51372.75;;;-144.14;100.00
7075;BME280;3578;51.568;6.932;2023-07-28T09:06:37;51402.81;;;-144.14;100.00
7075;BME280;3578;51.568;6.932;2023-07-28T09:09:06;51426.84;;;-144.14;100.00
7075;BME280;3578;51.568;6.932;2023-07-28T09:11:44;51454.88;;;-144.14;100.00
7075;BME280;3578;51.568;6.932;2023-07-28T09:14:12;51452.88;;;-144.14;100.00
7075;BME280;3578;51.568;6.932;2023-07-28T09:16:40;51468.91;;;-144.14;100.00
7075;BME280;3578;51.568;6.932;2023-07-28T09:19:08;51454.88;;;-144.14;100.00
7075;BME280;3578;51.568;6.932;2023-07-28T09:21:37;51460.88;;;-144.14;100.00
7075;BME280;3578;51.568;6.932;2023-07-28T09:24:05;51420.81;;;-144.14;100.00
7075;BME280;3578;51.568;6.932;2023-07-28T09:26:42;51426.84;;;-144.14;100.00
7075;BME280;3578;51.568;6.932;2023-07-28T09:29:14;51428.84;;;-144.14;100.00
7075;BME280;3578;51.568;6.932;2023-07-28T09:31:41;51410.81;;;-144.14;100.00
7075;BME280;3578;51.568;6.932;2023-07-28T09:34:08;51422.84;;;-144.14;100.00
7075;BME280;3578;51.568;6.932;2023-07-28T09:36:36;51454.88;;;-144.14;100.00
7075;BME280;3578;51.568;6.932;2023-07-28T09:39:05;51442.88;;;-144.14;100.00
7075;BME280;3578;51.568;6.932;2023-07-28T09:41:35;51488.94;;;-144.14;100.00
7075;BME280;3578;51.568;6.932;2023-07-28T09:44:05;51494.94;;;-144.14;100.00
7075;BME280;3578;51.568;6.932;2023-07-28T09:46:34;51543.00;;;-144.14;100.00
7075;BME280;3578;51.568;6.932;2023-07-28T09:49:05;51553.03;;;-144.14;100.00
7075;BME280;3578;51.568;6.932;2023-07-28T09:51:34;51575.06;;;-144.14;100.00
7075;BME280;3578;51.568;6.932;2023-07-28T09:54:05;51599.09;;;-144.14;100.00
7075;BME280;3578;51.568;6.932;2023-07-28T09:56:33;51571.06;;;-144.14;100.00
7075;BME280;3578;51.568;6.932;2023-07-28T09:59:11;51625.16;;;-144.14;100.00
7075;BME280;3578;51.568;6.932;2023-07-28T10:01:38;51637.16;;;-144.14;100.00
7075;BME280;3578;51.568;6.932;2023-07-28T10:04:06;51633.16;;;-144.14;100.00
7075;BME280;3578;51.568;6.932;2023-07-28T10:06:33;51649.19;;;-144.14;100.00
7075;BME280;3578;51.568;6.932;2023-07-28T10:09:01;51675.22;;;-144.14;100.00
7075;BME280;3578;51.568;6.932;2023-07-28T10:11:29;51695.25;;;-144.14;100.00
7075;BME280;3578;51.568;6.932;2023-07-28T10:13:57;51739.31;;;-144.14;100.00
7075;BME280;3578;51.568;6.932;2023-07-28T10:16:37;51819.44;;;-144.14;99.66
7075;BME280;3578;51.568;6.932;2023-07-28T10:19:05;51871.53;;;-144.14;98.87
7075;BME280;3578;51.568;6.932;2023-07-28T10:21:39;51835.47;;;-144.14;98.85
7075;BME280;3578;51.568;6.932;2023-07-28T10:24:07;51863.53;;;-144.14;99.39
7075;BME280;3578;51.568;6.932;2023-07-28T10:26:39;51905.59;;;-144.14;98.71
7075;BME280;3578;51.568;6.932;2023-07-28T10:29:11;51873.53;;;-144.14;98.83
7075;BME280;3578;51.568;6.932;2023-07-28T10:31:50;51899.59;;;-144.14;98.69
7075;BME280;3578;51.568;6.932;2023-07-28T10:34:18;51915.59;;;-144.14;98.43
7075;BME280;3578;51.568;6.932;2023-07-28T10:36:48;51963.69;;;-144.14;97.61
7075;BME280;3578;51.568;6.932;2023-07-28T10:39:22;51953.66;;;-144.14;98.44
7075;BME280;3578;51.568;6.932;2023-07-28T10:42:04;52051.84;;;-144.14;96.63
7075;BME280;3578;51.568;6.932;2023-07-28T10:44:32;52039.81;;;-144.14;96.79
7075;BME280;3578;51.568;6.932;2023-07-28T10:47:02;52023.78;;;-144.14;97.06
7075;BME280;3578;51.568;6.932;2023-07-28T10:49:34;52033.81;;;-144.14;96.97
7075;BME280;3578;51.568;6.932;2023-07-28T10:52:01;52055.84;;;-144.14;96.49
7075;BME280;3578;51.568;6.932;2023-07-28T10:54:28;52059.84;;;-144.14;96.47
7075;BME280;3578;51.568;6.932;2023-07-28T10:57:02;52081.88;;;-144.14;96.84
7075;BME280;3578;51.568;6.932;2023-07-28T10:59:30;52160.03;;;-144.14;96.36
7075;BME280;3578;51.568;6.932;2023-07-28T11:01:57;52164.03;;;-144.14;96.41
7075;BME280;3578;51.568;6.932;2023-07-28T11:04:25;52180.06;;;-144.14;95.40
7075;BME280;3578;51.568;6.932;2023-07-28T11:06:52;52212.09;;;-144.14;94.73
7075;BME280;3578;51.568;6.932;2023-07-28T11:09:22;52252.19;;;-144.14;95.02
7075;BME280;3578;51.568;6.932;2023-07-28T11:11:50;52310.28;;;-144.14;94.43
7075;BME280;3578;51.568;6.932;2023-07-28T11:14:18;52336.31;;;-144.14;93.55
7075;BME280;3578;51.568;6.932;2023-07-28T11:16:46;52444.53;;;-144.14;91.84
7075;BME280;3578;51.568;6.932;2023-07-28T11:19:14;52514.66;;;-144.14;90.63
7075;BME280;3578;51.568;6.932;2023-07-28T11:21:43;52496.63;;;-144.14;91.02
7075;BME280;3578;51.568;6.932;2023-07-28T11:24:18;52570.75;;;-144.14;90.06
7075;BME280;3578;51.568;6.932;2023-07-28T11:26:46;52586.78;;;-144.14;89.84
7075;BME280;3578;51.568;6.932;2023-07-28T11:29:13;52598.81;;;-144.14;90.30
7075;BME280;3578;51.568;6.932;2023-07-28T11:31:41;52560.72;;;-144.14;90.93
7075;BME280;3578;51.568;6.932;2023-07-28T11:34:13;52560.72;;;-144.14;91.29
7075;BME280;3578;51.568;6.932;2023-07-28T11:36:42;52574.75;;;-144.14;92.09
7075;BME280;3578;51.568;6.932;2023-07-28T11:39:10;52582.78;;;-144.14;91.25
7075;BME280;3578;51.568;6.932;2023-07-28T11:41:38;52592.78;;;-144.14;91.17
7075;BME280;3578;51.568;6.932;2023-07-28T11:44:05;52540.69;;;-144.14;92.60
7075;BME280;3578;51.568;6.932;2023-07-28T11:46:34;52520.66;;;-144.14;93.82
7075;BME280;3578;51.568;6.932;2023-07-28T11:49:10;52508.63;;;-144.14;93.61
7075;BME280;3578;51.568;6.932;2023-07-28T11:51:39;52544.69;;;-144.14;94.19
7075;BME280;3578;51.568;6.932;2023-07-28T11:54:11;52622.84;;;-144.14;93.08
7075;BME280;3578;51.568;6.932;2023-07-28T11:56:40;52638.88;;;-144.14;92.35
7075;BME280;3578;51.568;6.932;2023-07-28T11:59:07;52688.97;;;-144.14;92.08
7075;BME280;3578;51.568;6.932;2023-07-28T12:01:35;52666.94;;;-144.14;91.82
7075;BME280;3578;51.568;6.932;2023-07-28T12:04:20;52680.97;;;-144.14;90.27
7075;BME280;3578;51.568;6.932;2023-07-28T12:07:05;52688.97;;;-144.14;91.10
7075;BME280;3578;51.568;6.932;2023-07-28T12:09:50;52719.03;;;-144.14;90.78
7075;BME280;3578;51.568;6.932;2023-07-28T12:12:20;52699.00;;;-144.14;90.99
7075;BME280;3578;51.568;6.932;2023-07-28T12:14:47;52703.00;;;-144.14;91.37
7075;BME280;3578;51.568;6.932;2023-07-28T12:17:18;52789.16;;;-144.14;91.88
7075;BME280;3578;51.568;6.932;2023-07-28T12:19:57;52833.25;;;-144.14;89.58
7075;BME280;3578;51.568;6.932;2023-07-28T12:22:25;52909.41;;;-144.14;88.29
7075;BME280;3578;51.568;6.932;2023-07-28T12:24:53;52911.41;;;-144.14;88.47
7075;BME280;3578;51.568;6.932;2023-07-28T12:27:21;52849.28;;;-144.14;89.22
7075;BME280;3578;51.568;6.932;2023-07-28T12:29:50;52885.34;;;-144.14;89.93
7075;BME280;3578;51.568;6.932;2023-07-28T12:32:18;52941.44;;;-144.14;89.43
7075;BME280;3578;51.568;6.932;2023-07-28T12:34:45;53025.63;;;-144.14;86.86
7075;BME280;3578;51.568;6.932;2023-07-28T12:37:12;53113.78;;;-144.14;85.90
7075;BME280;3578;51.568;6.932;2023-07-28T12:39:39;53089.75;;;-144.14;87.12
7075;BME280;3578;51.568;6.932;2023-07-28T12:42:08;53107.78;;;-144.14;87.94
7075;BME280;3578;51.568;6.932;2023-07-28T12:44:35;53161.91;;;-144.14;86.67
7075;BME280;3578;51.568;6.932;2023-07-28T12:47:03;53226.03;;;-144.14;86.38
7075;BME280;3578;51.568;6.932;2023-07-28T12:49:31;53268.09;;;-144.14;84.19
7075;BME280;3578;51.568;6.932;2023-07-28T12:52:01;53276.13;;;-144.14;85.30
7075;BME280;3578;51.568;6.932;2023-07-28T12:54:28;53274.13;;;-144.14;84.71
7075;BME280;3578;51.568;6.932;2023-07-28T12:56:55;53324.22;;;-144.14;83.19
7075;BME280;3578;51.568;6.932;2023-07-28T12:59:23;53278.13;;;-144.14;85.38